createdAt,value
2019-02-04T00:00:01.138Z,11.22
2019-02-04T00:02:28.458Z,7.60
2019-02-04T00:04:55.946Z,11.28
2019-02-04T00:07:23.314Z,11.95
2019-02-04T00:09:50.683Z,9.23
2019-02-04T00:12:17.912Z,11.22
2019-02-04T00:14:45.462Z,10.65
2019-02-04T00:17:13.442Z,7.90
2019-02-04T00:19:41.038Z,10.80
2019-02-04T00:22:08.709Z,14.93
2019-02-04T00:24:36.079Z,10.40
2019-02-04T00:27:03.926Z,12.78
2019-02-04T00:29:31.042Z,12.55
2019-02-04T00:31:58.383Z,10.98
2019-02-04T00:34:25.609Z,10.00
2019-02-04T00:36:53.201Z,10.82
2019-02-04T00:39:21.189Z,9.33
2019-02-04T00:41:48.962Z,7.45
2019-02-04T00:44:16.013Z,10.53
2019-02-04T00:46:52.049Z,14.47
2019-02-04T00:49:12.197Z,9.40
2019-02-04T00:51:39.670Z,10.08
2019-02-04T00:54:07.471Z,11.35
2019-02-04T00:56:35.621Z,9.75
2019-02-04T00:59:03.694Z,8.63
2019-02-04T01:01:31.303Z,11.03
2019-02-04T01:03:58.862Z,75.37
2019-02-04T01:06:26.301Z,69.62
2019-02-04T01:08:53.982Z,49.20
2019-02-04T01:11:21.280Z,107.92
2019-02-04T01:13:48.592Z,61.77
2019-02-04T01:16:16.071Z,37.67
2019-02-04T01:18:43.870Z,41.18
2019-02-04T01:21:11.259Z,63.25
2019-02-04T01:23:38.838Z,35.70
2019-02-04T01:26:06.173Z,27.37
2019-02-04T01:28:33.867Z,20.15
2019-02-04T01:31:01.429Z,178.85
2019-02-04T01:33:28.498Z,190.30
2019-02-04T01:35:56.347Z,79.97
2019-02-04T01:38:23.934Z,38.50
2019-02-04T01:40:51.754Z,26.48
2019-02-04T01:43:19.154Z,25.88
2019-02-04T01:45:46.624Z,56.30
2019-02-04T01:48:14.077Z,90.60
2019-02-04T01:50:41.258Z,43.68
2019-02-04T01:53:08.681Z,33.45
2019-02-04T01:55:36.118Z,25.08
2019-02-04T01:58:03.736Z,28.40
2019-02-04T02:00:33.338Z,40.10
2019-02-04T02:03:00.316Z,32.33
2019-02-04T02:05:27.610Z,18.82
2019-02-04T02:07:55.191Z,26.87
2019-02-04T02:10:23.526Z,23.50
2019-02-04T02:12:50.734Z,21.80
2019-02-04T02:15:18.473Z,25.80
2019-02-04T02:17:45.689Z,24.82
2019-02-04T02:20:15.668Z,20.20
2019-02-04T02:22:42.781Z,24.75
2019-02-04T02:25:10.325Z,16.82
2019-02-04T02:27:38.016Z,19.65
2019-02-04T02:30:07.536Z,16.50
2019-02-04T02:32:35.310Z,18.90
2019-02-04T02:35:02.605Z,18.62
2019-02-04T02:37:29.673Z,17.02
2019-02-04T02:39:56.957Z,18.02
2019-02-04T02:42:24.691Z,19.82
2019-02-04T02:44:51.746Z,13.20
2019-02-04T02:47:18.877Z,18.52
2019-02-04T02:49:46.209Z,16.55
2019-02-04T02:52:13.482Z,178.35
2019-02-04T02:54:40.537Z,47.15
2019-02-04T02:57:08.180Z,52.15
2019-02-04T02:59:35.578Z,145.95
2019-02-04T03:02:03.082Z,57.70
2019-02-04T03:04:30.607Z,40.10
2019-02-04T03:06:58.320Z,30.30
2019-02-04T03:09:25.896Z,40.90
2019-02-04T03:11:53.598Z,49.48
2019-02-04T03:14:20.893Z,27.37
2019-02-04T03:16:47.969Z,18.85
2019-02-04T03:19:15.222Z,19.77
2019-02-04T03:21:42.326Z,16.37
2019-02-04T03:24:09.644Z,15.75
2019-02-04T03:26:37.092Z,14.70
2019-02-04T03:29:04.497Z,19.82
2019-02-04T03:31:32.174Z,47.25
2019-02-04T03:33:59.448Z,57.23
2019-02-04T03:36:26.881Z,58.38
2019-02-04T03:38:54.166Z,54.77
2019-02-04T03:41:21.350Z,28.30
2019-02-04T03:43:48.489Z,19.37
2019-02-04T03:46:15.653Z,21.33
2019-02-04T03:48:42.918Z,17.75
2019-02-04T03:51:10.637Z,32.83
2019-02-04T03:53:37.918Z,23.07
2019-02-04T03:56:05.085Z,22.37
2019-02-04T03:58:32.834Z,26.37
2019-02-04T04:01:00.193Z,29.77
2019-02-04T04:03:27.558Z,15.75
2019-02-04T04:05:55.073Z,17.67
2019-02-04T04:08:22.788Z,16.70
2019-02-04T04:10:49.981Z,22.32
2019-02-04T04:13:17.050Z,18.32
2019-02-04T04:15:45.380Z,18.80
2019-02-04T04:18:16.123Z,18.90
2019-02-04T04:20:41.450Z,17.07
2019-02-04T04:23:08.507Z,23.30
2019-02-04T04:25:36.357Z,23.22
2019-02-04T04:28:04.157Z,13.30
2019-02-04T04:30:31.595Z,19.75
2019-02-04T04:32:59.017Z,15.28
2019-02-04T04:35:26.025Z,17.82
2019-02-04T04:37:53.574Z,24.92
2019-02-04T04:40:20.893Z,28.30
2019-02-04T04:42:48.798Z,28.50
2019-02-04T04:45:17.969Z,36.03
2019-02-04T04:47:45.250Z,30.02
2019-02-04T04:50:12.728Z,26.12
2019-02-04T04:52:40.055Z,24.55
2019-02-04T04:55:08.840Z,26.35
2019-02-04T04:57:35.942Z,21.17
2019-02-04T05:00:04.993Z,16.10
2019-02-04T05:02:32.237Z,23.45
2019-02-04T05:04:59.832Z,14.00
2019-02-04T05:07:27.452Z,17.37
2019-02-04T05:09:54.630Z,21.50
2019-02-04T05:12:21.982Z,16.80
2019-02-04T05:14:49.457Z,21.85
2019-02-04T05:17:16.870Z,20.97
2019-02-04T05:19:44.212Z,23.55
2019-02-04T05:22:12.189Z,26.95
2019-02-04T05:24:39.876Z,21.10
2019-02-04T05:27:07.313Z,18.82
2019-02-04T05:29:34.474Z,43.87
2019-02-04T05:32:01.894Z,39.38
2019-02-04T05:34:29.484Z,43.33
2019-02-04T05:36:57.210Z,56.65
2019-02-04T05:39:24.500Z,37.30
2019-02-04T05:41:51.333Z,24.12
2019-02-04T05:44:18.621Z,22.48
2019-02-04T05:46:45.982Z,31.07
2019-02-04T05:49:13.041Z,25.88
2019-02-04T05:51:40.634Z,41.73
2019-02-04T05:54:07.692Z,42.60
2019-02-04T05:56:35.133Z,32.95
2019-02-04T05:59:02.385Z,33.67
2019-02-04T06:01:29.828Z,29.90
2019-02-04T06:03:57.264Z,32.00
2019-02-04T06:06:24.698Z,38.08
2019-02-04T06:08:52.117Z,56.33
2019-02-04T06:11:19.376Z,60.23
2019-02-04T06:13:46.992Z,44.77
2019-02-04T06:16:14.049Z,48.05
2019-02-04T06:18:41.784Z,35.00
2019-02-04T06:21:09.201Z,32.73
2019-02-04T06:23:36.281Z,30.30
2019-02-04T06:26:04.108Z,33.48
2019-02-04T06:28:31.265Z,34.27
2019-02-04T06:30:58.320Z,36.98
2019-02-04T06:33:26.277Z,35.48
2019-02-04T06:35:53.429Z,38.95
2019-02-04T06:38:20.455Z,27.50
2019-02-04T06:40:47.623Z,33.53
2019-02-04T06:43:14.949Z,30.27
2019-02-04T06:45:41.997Z,30.92
2019-02-04T06:48:09.281Z,27.07
2019-02-04T06:50:36.804Z,20.77
2019-02-04T06:53:04.078Z,24.30
2019-02-04T06:55:32.217Z,25.25
2019-02-04T06:57:59.398Z,22.40
2019-02-04T07:00:26.649Z,25.90
2019-02-04T07:02:53.920Z,21.25
2019-02-04T07:05:21.539Z,24.50
2019-02-04T07:07:48.873Z,28.02
2019-02-04T07:10:18.117Z,29.18
2019-02-04T07:12:45.585Z,26.70
2019-02-04T07:15:13.229Z,91.37
2019-02-04T07:17:40.945Z,56.18
2019-02-04T07:20:11.537Z,34.53
2019-02-04T07:22:39.050Z,42.35
2019-02-04T07:25:08.505Z,32.53
2019-02-04T07:27:35.926Z,51.85
2019-02-04T07:30:04.657Z,32.73
2019-02-04T07:32:31.800Z,23.55
2019-02-04T07:34:59.417Z,60.12
2019-02-04T07:37:26.996Z,32.55
2019-02-04T07:39:54.074Z,32.08
2019-02-04T07:42:21.394Z,38.73
2019-02-04T07:44:48.605Z,37.78
2019-02-04T07:47:15.652Z,32.55
2019-02-04T07:49:42.996Z,53.98
2019-02-04T07:52:10.152Z,41.08
2019-02-04T07:54:37.668Z,36.48
2019-02-04T07:57:05.377Z,36.60
2019-02-04T07:59:32.549Z,33.25
2019-02-04T08:01:59.833Z,30.20
2019-02-04T08:04:27.005Z,25.97
2019-02-04T08:06:54.520Z,24.80
2019-02-04T08:09:21.581Z,18.40
2019-02-04T08:11:49.033Z,19.42
2019-02-04T08:14:16.347Z,22.95
2019-02-04T08:16:43.538Z,18.98
2019-02-04T08:19:10.588Z,25.55
2019-02-04T08:21:37.812Z,19.40
2019-02-04T08:24:05.334Z,24.55
2019-02-04T08:26:32.481Z,19.37
2019-02-04T08:28:59.752Z,19.92
2019-02-04T08:31:27.309Z,20.20
2019-02-04T08:33:54.481Z,20.50
2019-02-04T08:36:21.625Z,22.58
2019-02-04T08:38:49.061Z,23.62
2019-02-04T08:41:16.449Z,21.27
2019-02-04T08:43:44.057Z,21.40
2019-02-04T08:46:11.803Z,22.22
2019-02-04T08:48:39.930Z,19.77
2019-02-04T08:51:07.386Z,21.65
2019-02-04T08:53:34.554Z,19.12
2019-02-04T08:56:01.997Z,19.73
2019-02-04T08:58:29.335Z,21.57
2019-02-04T09:00:56.846Z,18.25
2019-02-04T09:03:24.450Z,21.27
2019-02-04T09:05:52.017Z,18.67
2019-02-04T09:08:19.293Z,31.57
2019-02-04T09:10:46.554Z,19.75
2019-02-04T09:13:13.573Z,27.77
2019-02-04T09:15:40.733Z,31.75
2019-02-04T09:18:08.013Z,22.50
2019-02-04T09:20:35.173Z,21.62
2019-02-04T09:23:02.346Z,22.45
2019-02-04T09:25:29.928Z,25.43
2019-02-04T09:27:57.354Z,20.32
2019-02-04T09:30:25.085Z,22.95
2019-02-04T09:32:52.434Z,25.82
2019-02-04T09:35:20.368Z,23.27
2019-02-04T09:37:47.783Z,28.95
2019-02-04T09:40:18.047Z,23.20
2019-02-04T09:42:45.693Z,22.52
2019-02-04T09:45:14.577Z,22.90
2019-02-04T09:47:50.756Z,24.92
2019-02-04T09:50:21.737Z,24.82
2019-02-04T09:52:48.289Z,27.70
2019-02-04T09:55:24.045Z,23.38
2019-02-04T09:57:51.213Z,22.42
2019-02-04T10:00:20.697Z,23.10
2019-02-04T10:02:48.230Z,25.48
2019-02-04T10:05:16.063Z,20.23
2019-02-04T10:07:43.208Z,22.15
2019-02-04T10:10:12.198Z,20.68
2019-02-04T10:12:39.914Z,21.95
2019-02-04T10:15:10.553Z,18.87
2019-02-04T10:17:38.016Z,23.15
2019-02-04T10:20:05.876Z,26.10
2019-02-04T10:22:32.783Z,22.70
2019-02-04T10:24:59.844Z,23.98
2019-02-04T10:27:27.399Z,18.30
2019-02-04T10:29:54.937Z,25.20
2019-02-04T10:32:22.198Z,30.05
2019-02-04T10:34:49.409Z,23.70
2019-02-04T10:37:17.429Z,28.52
2019-02-04T10:39:44.976Z,25.85
2019-02-04T10:42:12.680Z,21.15
2019-02-04T10:44:40.316Z,21.10
2019-02-04T10:47:08.162Z,22.75
2019-02-04T10:49:35.324Z,22.48
2019-02-04T10:52:02.853Z,24.65
2019-02-04T10:54:30.192Z,25.57
2019-02-04T10:56:57.409Z,23.10
2019-02-04T10:59:24.482Z,23.40
2019-02-04T11:01:52.093Z,20.60
2019-02-04T11:04:19.612Z,20.17
2019-02-04T11:06:46.903Z,19.52
2019-02-04T11:09:14.483Z,17.35
2019-02-04T11:11:41.946Z,24.57
2019-02-04T11:14:09.190Z,21.70
2019-02-04T11:16:36.853Z,20.90
2019-02-04T11:19:04.612Z,21.40
2019-02-04T11:21:31.988Z,95.42
2019-02-04T11:23:59.423Z,88.78
2019-02-04T11:26:26.820Z,32.88
2019-02-04T11:28:54.418Z,19.27
2019-02-04T11:31:21.349Z,18.27
2019-02-04T11:33:48.763Z,17.35
2019-02-04T11:36:16.073Z,19.45
2019-02-04T11:38:43.611Z,14.85
2019-02-04T11:41:11.023Z,15.63
2019-02-04T11:43:38.245Z,13.85
2019-02-04T11:46:05.933Z,15.10
2019-02-04T11:48:33.527Z,11.55
2019-02-04T11:51:09.393Z,12.58
2019-02-04T11:53:32.964Z,10.45
2019-02-04T11:55:59.402Z,8.75
2019-02-04T11:58:26.665Z,6.40
2019-02-04T12:00:53.789Z,13.75
2019-02-04T12:03:21.442Z,8.20
2019-02-04T12:05:48.602Z,12.45
2019-02-04T12:08:17.156Z,7.33
2019-02-04T12:10:47.891Z,7.05
2019-02-04T12:13:15.157Z,7.70
2019-02-04T12:15:42.409Z,13.13
2019-02-04T12:18:09.945Z,7.95
2019-02-04T12:20:39.814Z,8.90
2019-02-04T12:23:06.333Z,6.90
2019-02-04T12:25:34.064Z,5.80
2019-02-04T12:28:00.991Z,4.37
2019-02-04T12:30:31.190Z,6.97
2019-02-04T12:32:58.910Z,8.10
2019-02-04T12:35:26.292Z,7.30
2019-02-04T12:37:53.563Z,7.28
2019-02-04T12:40:20.933Z,8.30
2019-02-04T12:42:48.403Z,8.73
2019-02-04T12:45:18.869Z,5.55
2019-02-04T12:47:46.154Z,6.25
2019-02-04T12:50:13.533Z,6.87
2019-02-04T12:52:40.953Z,8.53
2019-02-04T12:55:10.054Z,6.83
2019-02-04T12:57:37.209Z,5.12
2019-02-04T13:00:07.809Z,7.45
2019-02-04T13:02:35.066Z,7.08
2019-02-04T13:05:02.329Z,7.15
2019-02-04T13:07:29.233Z,10.00
2019-02-04T13:09:56.309Z,7.15
2019-02-04T13:12:23.561Z,7.35
2019-02-04T13:14:50.921Z,9.63
2019-02-04T13:17:18.486Z,9.30
2019-02-04T13:19:45.834Z,6.37
2019-02-04T13:22:13.105Z,7.40
2019-02-04T13:24:40.392Z,6.58
2019-02-04T13:27:07.661Z,4.42
2019-02-04T13:29:34.737Z,4.53
2019-02-04T13:32:02.193Z,14.00
2019-02-04T13:34:29.581Z,5.67
2019-02-04T13:36:57.102Z,7.70
2019-02-04T13:39:24.475Z,6.85
2019-02-04T13:41:52.019Z,5.78
2019-02-04T13:44:19.353Z,5.87
2019-02-04T13:46:46.802Z,4.62
2019-02-04T13:49:13.873Z,4.80
2019-02-04T13:51:41.055Z,5.15
2019-02-04T13:54:08.399Z,5.85
2019-02-04T13:56:35.580Z,6.33
2019-02-04T13:59:03.299Z,4.80
2019-02-04T14:01:30.473Z,7.00
2019-02-04T14:03:58.003Z,9.85
2019-02-04T14:06:25.554Z,7.20
2019-02-04T14:08:53.032Z,8.70
2019-02-04T14:11:20.553Z,4.58
2019-02-04T14:13:47.353Z,12.53
2019-02-04T14:16:14.921Z,6.25
2019-02-04T14:18:41.745Z,5.80
2019-02-04T14:21:09.045Z,5.30
2019-02-04T14:23:36.361Z,4.50
2019-02-04T14:26:03.637Z,5.92
2019-02-04T14:28:31.534Z,9.10
2019-02-04T14:30:59.332Z,5.55
2019-02-04T14:33:26.510Z,7.28
2019-02-04T14:35:53.845Z,6.95
2019-02-04T14:38:21.093Z,4.30
2019-02-04T14:40:48.921Z,4.47
2019-02-04T14:43:39.409Z,4.17
2019-02-04T14:46:22.742Z,6.12
2019-02-04T14:49:17.692Z,4.17
2019-02-04T14:52:21.693Z,6.55
2019-02-04T14:55:05.538Z,4.37
2019-02-04T14:57:54.927Z,4.35
2019-02-04T15:00:49.030Z,9.28
2019-02-04T15:04:01.189Z,4.37
2019-02-04T15:06:53.712Z,3.67
2019-02-04T15:09:33.274Z,4.30
2019-02-04T15:12:16.945Z,8.05
2019-02-04T15:15:14.428Z,5.42
2019-02-04T15:18:14.009Z,5.12
2019-02-04T15:21:22.114Z,5.50
2019-02-04T15:24:08.707Z,3.90
2019-02-04T15:27:21.116Z,6.35
2019-02-04T15:30:16.945Z,5.50
2019-02-04T15:33:29.972Z,5.95
2019-02-04T15:36:13.065Z,3.85
2019-02-04T15:38:57.611Z,4.70
2019-02-04T15:41:58.793Z,4.70
2019-02-04T15:45:09.745Z,7.60
2019-02-04T15:47:53.022Z,4.58
2019-02-04T15:51:04.100Z,6.95
2019-02-04T15:53:31.521Z,4.90
2019-02-04T15:55:59.341Z,4.83
2019-02-04T15:58:27.281Z,5.25
2019-02-04T16:00:54.722Z,3.83
2019-02-04T16:03:22.491Z,3.40
2019-02-04T16:05:49.933Z,5.45
2019-02-04T16:08:17.121Z,4.03
2019-02-04T16:10:44.021Z,5.70
2019-02-04T16:13:11.478Z,4.55
2019-02-04T16:15:42.332Z,6.25
2019-02-04T16:18:08.535Z,5.25
2019-02-04T16:20:36.334Z,4.58
2019-02-04T16:23:03.868Z,20.52
2019-02-04T16:25:31.029Z,14.83
2019-02-04T16:27:58.882Z,10.18
2019-02-04T16:30:26.231Z,9.10
2019-02-04T16:32:53.871Z,7.22
2019-02-04T16:35:21.694Z,12.65
2019-02-04T16:37:49.710Z,11.48
2019-02-04T16:40:19.021Z,14.20
2019-02-04T16:42:46.441Z,15.10
2019-02-04T16:45:14.565Z,19.75
2019-02-04T16:47:42.350Z,12.80
2019-02-04T16:50:13.379Z,11.38
2019-02-04T16:52:40.800Z,10.58
2019-02-04T16:55:21.019Z,13.90
2019-02-04T16:57:48.198Z,21.97
2019-02-04T17:00:18.544Z,48.65
2019-02-04T17:02:46.143Z,59.13
2019-02-04T17:05:13.649Z,63.02
2019-02-04T17:07:41.193Z,82.15
2019-02-04T17:10:11.217Z,61.37
2019-02-04T17:12:39.118Z,45.17
2019-02-04T17:15:06.939Z,35.45
2019-02-04T17:17:34.601Z,45.05
2019-02-04T17:20:02.834Z,39.53
2019-02-04T17:22:30.421Z,49.08
2019-02-04T17:24:57.634Z,43.52
2019-02-04T17:27:24.690Z,62.05
2019-02-04T17:29:51.881Z,72.12
2019-02-04T17:32:19.142Z,31.77
2019-02-04T17:34:46.481Z,39.98
2019-02-04T17:37:14.243Z,12.10
2019-02-04T17:39:41.450Z,12.63
2019-02-04T17:42:09.181Z,12.30
2019-02-04T17:44:37.181Z,11.65
2019-02-04T17:47:04.559Z,15.75
2019-02-04T17:49:31.980Z,32.40
2019-02-04T17:51:59.886Z,16.05
2019-02-04T17:54:27.665Z,10.10
2019-02-04T17:56:55.212Z,13.53
2019-02-04T17:59:23.424Z,16.67
2019-02-04T18:01:51.161Z,27.98
2019-02-04T18:04:18.627Z,15.10
2019-02-04T18:06:45.906Z,16.15
2019-02-04T18:09:13.438Z,13.95
2019-02-04T18:11:40.709Z,14.87
2019-02-04T18:14:08.169Z,15.23
2019-02-04T18:16:35.905Z,15.53
2019-02-04T18:19:03.645Z,10.75
2019-02-04T18:21:31.622Z,10.35
2019-02-04T18:23:59.494Z,12.63
2019-02-04T18:26:47.633Z,14.78
2019-02-04T18:29:15.181Z,14.15
2019-02-04T18:31:43.190Z,17.77
2019-02-04T18:34:10.809Z,15.00
2019-02-04T18:36:38.520Z,12.60
2019-02-04T18:39:27.260Z,15.90
2019-02-04T18:46:06.043Z,21.62
2019-02-04T18:48:33.891Z,22.40
2019-02-04T18:51:01.161Z,22.48
2019-02-04T18:53:28.229Z,23.25
2019-02-04T18:55:55.905Z,20.82
2019-02-04T18:58:23.384Z,18.48
2019-02-04T19:00:50.538Z,22.85
2019-02-04T19:03:17.812Z,29.10
2019-02-04T19:05:45.391Z,26.35
2019-02-04T19:08:13.018Z,17.45
2019-02-04T19:10:40.430Z,19.15
2019-02-04T19:13:07.969Z,13.45
2019-02-04T19:15:35.614Z,18.00
2019-02-04T19:18:05.730Z,11.93
2019-02-04T19:20:33.338Z,18.32
2019-02-04T19:23:00.429Z,19.02
2019-02-04T19:25:27.442Z,25.12
2019-02-04T19:27:54.653Z,24.18
2019-02-04T19:30:27.476Z,30.52
2019-02-04T19:32:55.436Z,16.95
2019-02-04T19:35:22.720Z,16.35
2019-02-04T19:37:49.905Z,17.95
2019-02-04T19:40:17.289Z,11.80
2019-02-04T19:42:44.806Z,22.73
2019-02-04T19:45:14.421Z,29.42
2019-02-04T19:47:42.026Z,23.62
2019-02-04T19:50:14.469Z,26.75
2019-02-04T19:52:42.285Z,24.43
2019-02-04T19:55:11.100Z,24.52
2019-02-04T19:57:39.419Z,20.82
2019-02-04T20:00:10.345Z,20.12
2019-02-04T20:02:37.469Z,27.62
2019-02-04T20:05:06.617Z,24.85
2019-02-04T20:07:34.319Z,21.33
2019-02-04T20:10:02.083Z,26.35
2019-02-04T20:12:29.725Z,23.50
2019-02-04T20:14:57.197Z,17.00
2019-02-04T20:17:24.057Z,17.40
2019-02-04T20:19:51.516Z,18.80
2019-02-04T20:22:19.633Z,11.00
2019-02-04T20:24:46.529Z,13.30
2019-02-04T20:27:14.389Z,19.40
2019-02-04T20:29:42.175Z,17.57
2019-02-04T20:32:09.817Z,20.40
2019-02-04T20:34:37.558Z,13.75
2019-02-04T20:37:05.704Z,14.70
2019-02-04T20:39:33.557Z,15.05
2019-02-04T20:42:01.233Z,14.10
2019-02-04T20:44:28.846Z,17.73
2019-02-04T20:46:56.454Z,18.42
2019-02-04T20:49:24.065Z,12.47
2019-02-04T20:51:51.360Z,12.28
2019-02-04T20:54:20.097Z,11.68
2019-02-04T20:56:48.359Z,10.18
2019-02-04T20:59:15.424Z,17.90
2019-02-04T21:01:42.505Z,23.85
2019-02-04T21:04:10.141Z,15.05
2019-02-04T21:06:37.888Z,22.20
2019-02-04T21:09:07.965Z,15.75
2019-02-04T21:11:35.598Z,13.68
2019-02-04T21:14:03.030Z,13.83
2019-02-04T21:16:30.495Z,18.65
2019-02-04T21:18:58.073Z,16.95
2019-02-04T21:21:26.470Z,22.20
2019-02-04T21:23:53.893Z,21.87
2019-02-04T21:26:21.537Z,13.43
2019-02-04T21:28:48.961Z,14.40
2019-02-04T21:31:17.081Z,11.03
2019-02-04T21:33:44.909Z,15.88
2019-02-04T21:36:12.385Z,22.05
2019-02-04T21:38:39.193Z,19.12
2019-02-04T21:41:06.566Z,22.45
2019-02-04T21:43:34.139Z,15.95
2019-02-04T21:46:01.722Z,14.18
2019-02-04T21:48:29.356Z,16.97
2019-02-04T21:50:57.478Z,16.15
2019-02-04T21:53:25.725Z,17.70
2019-02-04T21:55:53.228Z,17.92
2019-02-04T21:58:20.566Z,18.85
2019-02-04T22:00:48.009Z,20.52
2019-02-04T22:03:15.485Z,59.98
2019-02-04T22:05:42.698Z,31.35
2019-02-04T22:08:10.365Z,59.15
2019-02-04T22:10:38.209Z,91.25
2019-02-04T22:13:05.921Z,31.02
2019-02-04T22:15:33.917Z,55.78
2019-02-04T22:18:01.829Z,42.75
2019-02-04T22:20:29.917Z,39.13
2019-02-04T22:22:57.140Z,24.70
2019-02-04T22:25:24.832Z,25.27
2019-02-04T22:27:52.489Z,20.27
2019-02-04T22:30:21.977Z,25.43
2019-02-04T22:32:49.598Z,24.35
2019-02-04T22:35:17.120Z,23.25
2019-02-04T22:37:44.942Z,20.05
2019-02-04T22:40:17.309Z,18.90
2019-02-04T22:42:44.805Z,19.27
2019-02-04T22:45:12.877Z,33.00
2019-02-04T22:47:40.603Z,61.92
2019-02-04T22:50:11.467Z,27.35
2019-02-04T22:52:38.765Z,34.18
2019-02-04T22:55:06.948Z,27.27
2019-02-04T22:57:35.077Z,29.82
2019-02-04T23:00:04.113Z,22.05
2019-02-04T23:02:31.439Z,24.95
2019-02-04T23:04:59.590Z,36.80
2019-02-04T23:07:27.598Z,30.35
2019-02-04T23:09:55.327Z,23.92
2019-02-04T23:12:22.432Z,20.65
2019-02-04T23:14:49.689Z,26.00
2019-02-04T23:17:16.813Z,20.02
2019-02-04T23:19:44.013Z,23.92
2019-02-04T23:22:11.809Z,24.72
2019-02-04T23:24:38.996Z,25.35
2019-02-04T23:27:06.470Z,24.18
2019-02-04T23:29:34.490Z,24.32
2019-02-04T23:32:02.485Z,26.17
2019-02-04T23:34:30.115Z,22.70
2019-02-04T23:36:57.642Z,19.98
2019-02-04T23:39:25.009Z,22.82
2019-02-04T23:41:55.932Z,20.20
2019-02-04T23:44:22.049Z,22.62
2019-02-04T23:46:49.645Z,24.75
2019-02-04T23:49:17.177Z,21.23
2019-02-04T23:51:47.352Z,24.60
2019-02-04T23:54:14.157Z,24.10
2019-02-04T23:56:42.086Z,23.35
2019-02-04T23:59:09.467Z,23.55
